createdAt,value
2018-07-13T00:00:04.897Z,7.83
2018-07-13T00:02:33.931Z,7.03
2018-07-13T00:05:03.044Z,6.60
2018-07-13T00:07:32.152Z,6.90
2018-07-13T00:10:01.200Z,6.65
2018-07-13T00:12:30.264Z,7.22
2018-07-13T00:15:06.612Z,6.78
2018-07-13T00:17:35.656Z,7.40
2018-07-13T00:20:05.390Z,7.35
2018-07-13T00:22:34.180Z,7.03
2018-07-13T00:25:03.165Z,7.22
2018-07-13T00:27:32.236Z,6.30
2018-07-13T00:30:01.270Z,7.28
2018-07-13T00:32:30.350Z,6.95
2018-07-13T00:34:59.103Z,7.05
2018-07-13T00:37:28.029Z,8.00
2018-07-13T00:39:57.076Z,7.50
2018-07-13T00:42:26.144Z,7.37
2018-07-13T00:44:55.155Z,7.87
2018-07-13T00:47:24.207Z,6.85
2018-07-13T00:49:53.234Z,7.70
2018-07-13T00:52:22.272Z,8.50
2018-07-13T00:54:51.320Z,8.75
2018-07-13T00:57:20.334Z,8.33
2018-07-13T00:59:49.384Z,8.10
2018-07-13T01:02:18.449Z,7.97
2018-07-13T01:04:47.544Z,8.70
2018-07-13T01:07:16.547Z,7.17
2018-07-13T01:09:45.563Z,7.75
2018-07-13T01:12:14.625Z,9.85
2018-07-13T01:14:43.636Z,8.45
2018-07-13T01:17:12.728Z,8.15
2018-07-13T01:19:41.768Z,8.58
2018-07-13T01:22:10.791Z,8.80
2018-07-13T01:24:39.891Z,9.68
2018-07-13T01:27:08.902Z,8.68
2018-07-13T01:29:37.960Z,8.28
2018-07-13T01:32:07.097Z,8.65
2018-07-13T01:34:36.145Z,9.53
2018-07-13T01:37:05.565Z,10.58
2018-07-13T01:39:34.617Z,10.38
2018-07-13T01:42:03.640Z,11.10
2018-07-13T01:44:32.697Z,11.30
2018-07-13T01:47:01.809Z,11.35
2018-07-13T01:49:30.857Z,11.35
2018-07-13T01:51:59.890Z,9.75
2018-07-13T01:54:28.943Z,10.23
2018-07-13T01:56:57.968Z,11.28
2018-07-13T01:59:27.000Z,11.25
2018-07-13T02:01:56.116Z,12.20
2018-07-13T02:04:25.214Z,11.53
2018-07-13T02:06:54.261Z,13.90
2018-07-13T02:09:23.369Z,14.73
2018-07-13T02:11:52.428Z,14.87
2018-07-13T02:14:21.481Z,16.12
2018-07-13T02:16:50.533Z,15.63
2018-07-13T02:19:19.571Z,15.25
2018-07-13T02:21:48.729Z,15.28
2018-07-13T02:24:17.793Z,14.85
2018-07-13T02:26:46.828Z,14.53
2018-07-13T02:29:15.875Z,14.33
2018-07-13T02:31:44.904Z,13.85
2018-07-13T02:34:13.964Z,13.93
2018-07-13T02:36:42.982Z,15.40
2018-07-13T02:39:12.554Z,15.85
2018-07-13T02:41:41.572Z,15.13
2018-07-13T02:44:10.627Z,16.97
2018-07-13T02:46:39.696Z,15.72
2018-07-13T02:49:08.760Z,16.07
2018-07-13T02:51:37.786Z,16.65
2018-07-13T02:54:07.200Z,16.80
2018-07-13T02:56:36.224Z,16.10
2018-07-13T02:59:05.296Z,16.37
2018-07-13T03:01:34.348Z,17.48
2018-07-13T03:04:03.492Z,15.72
2018-07-13T03:06:32.513Z,17.50
2018-07-13T03:09:01.563Z,17.98
2018-07-13T03:11:30.592Z,17.42
2018-07-13T03:13:59.636Z,16.27
2018-07-13T03:16:28.664Z,18.90
2018-07-13T03:18:57.716Z,17.15
2018-07-13T03:21:26.768Z,17.48
2018-07-13T03:23:55.842Z,17.52
2018-07-13T03:26:24.868Z,17.77
2018-07-13T03:28:53.956Z,17.87
2018-07-13T03:31:22.985Z,16.90
2018-07-13T03:33:52.037Z,18.37
2018-07-13T03:36:21.067Z,19.00
2018-07-13T03:38:50.179Z,21.20
2018-07-13T03:41:19.243Z,21.48
2018-07-13T03:43:48.566Z,20.82
2018-07-13T03:46:17.596Z,20.10
2018-07-13T03:48:46.653Z,19.98
2018-07-13T03:51:15.395Z,19.52
2018-07-13T03:53:44.402Z,20.80
2018-07-13T03:56:13.464Z,20.82
2018-07-13T03:58:42.504Z,20.40
2018-07-13T04:01:11.579Z,20.60
2018-07-13T04:03:40.634Z,20.57
2018-07-13T04:06:09.706Z,20.37
2018-07-13T04:08:38.769Z,22.75
2018-07-13T04:11:07.835Z,21.73
2018-07-13T04:13:36.880Z,21.12
2018-07-13T04:16:05.953Z,21.00
2018-07-13T04:18:34.990Z,22.35
2018-07-13T04:21:04.096Z,21.05
2018-07-13T04:23:33.224Z,22.87
2018-07-13T04:26:02.303Z,21.80
2018-07-13T04:28:32.085Z,23.27
2018-07-13T04:31:01.149Z,21.57
2018-07-13T04:33:30.201Z,22.70
2018-07-13T04:35:59.284Z,20.65
2018-07-13T04:38:28.413Z,21.77
2018-07-13T04:40:57.515Z,21.75
2018-07-13T04:43:26.568Z,21.42
2018-07-13T04:45:55.649Z,21.80
2018-07-13T04:48:24.740Z,21.37
2018-07-13T04:50:53.868Z,21.70
2018-07-13T04:53:22.965Z,23.30
2018-07-13T04:55:52.085Z,23.20
2018-07-13T04:58:21.213Z,20.68
2018-07-13T05:00:50.328Z,23.12
2018-07-13T05:03:19.392Z,24.20
2018-07-13T05:05:48.515Z,22.22
2018-07-13T05:08:17.642Z,22.62
2018-07-13T05:10:46.706Z,22.98
2018-07-13T05:13:15.765Z,22.73
2018-07-13T05:15:44.918Z,23.83
2018-07-13T05:18:13.959Z,22.22
2018-07-13T05:20:43.168Z,21.42
2018-07-13T05:23:12.292Z,22.73
2018-07-13T05:25:41.803Z,20.97
2018-07-13T05:28:10.940Z,21.95
2018-07-13T05:30:40.131Z,21.82
2018-07-13T05:33:09.661Z,23.90
2018-07-13T05:35:38.783Z,23.05
2018-07-13T05:38:08.705Z,21.23
2018-07-13T05:40:37.912Z,21.35
2018-07-13T05:43:07.399Z,21.37
2018-07-13T05:45:36.572Z,20.57
2018-07-13T05:48:05.677Z,20.80
2018-07-13T05:50:34.841Z,20.85
2018-07-13T05:53:04.168Z,20.60
2018-07-13T05:55:33.311Z,21.80
2018-07-13T05:58:02.409Z,21.82
2018-07-13T06:00:32.258Z,20.68
2018-07-13T06:03:01.440Z,21.73
2018-07-13T06:05:30.600Z,21.97
2018-07-13T06:07:59.696Z,18.90
2018-07-13T06:10:28.837Z,19.60
2018-07-13T06:12:57.940Z,19.92
2018-07-13T06:15:27.044Z,20.80
2018-07-13T06:17:56.100Z,21.50
2018-07-13T06:20:25.188Z,21.37
2018-07-13T06:22:54.248Z,18.65
2018-07-13T06:25:23.353Z,21.07
2018-07-13T06:27:52.444Z,19.10
2018-07-13T06:30:21.560Z,18.87
2018-07-13T06:32:50.633Z,18.73
2018-07-13T06:35:19.428Z,19.42
2018-07-13T06:37:48.516Z,20.62
2018-07-13T06:40:17.611Z,19.25
2018-07-13T06:42:46.729Z,18.48
2018-07-13T06:45:15.812Z,19.70
2018-07-13T06:47:45.447Z,18.70
2018-07-13T06:50:14.704Z,19.17
2018-07-13T06:52:44.712Z,20.85
2018-07-13T06:55:15.319Z,20.02
2018-07-13T06:57:55.544Z,18.82
2018-07-13T07:01:10.684Z,20.23
2018-07-13T07:04:51.098Z,18.75
2018-07-13T07:07:23.487Z,19.37
2018-07-13T07:09:57.724Z,18.35
2018-07-13T07:12:52.248Z,19.87
2018-07-13T07:15:22.366Z,18.62
2018-07-13T07:17:51.879Z,17.98
2018-07-13T07:20:20.951Z,20.57
2018-07-13T07:22:50.741Z,20.40
2018-07-13T07:25:19.896Z,18.52
2018-07-13T07:27:49.164Z,19.70
2018-07-13T07:30:18.407Z,19.20
2018-07-13T07:32:47.500Z,18.77
2018-07-13T07:35:16.537Z,18.73
2018-07-13T07:37:47.823Z,20.10
2018-07-13T07:40:16.883Z,20.87
2018-07-13T07:42:46.044Z,20.40
2018-07-13T07:45:15.657Z,18.95
2018-07-13T07:47:44.743Z,19.93
2018-07-13T07:50:14.047Z,20.08
2018-07-13T07:52:43.881Z,21.37
2018-07-13T07:55:14.161Z,20.80
2018-07-13T07:57:43.854Z,23.25
2018-07-13T08:00:12.948Z,23.10
2018-07-13T08:02:42.188Z,21.53
2018-07-13T08:05:11.313Z,21.93
2018-07-13T08:07:40.639Z,24.05
2018-07-13T08:10:09.698Z,19.97
2018-07-13T08:12:38.796Z,23.27
2018-07-13T08:15:07.884Z,21.50
2018-07-13T08:17:37.618Z,21.87
2018-07-13T08:20:18.499Z,23.80
2018-07-13T08:22:58.112Z,23.07
2018-07-13T08:25:28.495Z,21.93
2018-07-13T08:28:01.369Z,22.23
2018-07-13T08:30:34.464Z,22.27
2018-07-13T08:33:03.775Z,24.27
2018-07-13T08:35:32.842Z,26.13
2018-07-13T08:38:02.293Z,23.77
2018-07-13T08:40:31.626Z,24.03
2018-07-13T08:43:01.532Z,22.47
2018-07-13T08:45:30.793Z,22.10
2018-07-13T08:48:00.026Z,22.60
2018-07-13T08:50:29.670Z,22.70
2018-07-13T08:52:59.705Z,24.50
2018-07-13T08:55:29.141Z,23.80
2018-07-13T08:57:58.609Z,23.37
2018-07-13T09:00:27.750Z,25.70
2018-07-13T09:02:56.887Z,23.00
2018-07-13T09:05:25.969Z,23.13
2018-07-13T09:07:55.083Z,24.60
2018-07-13T09:10:24.139Z,26.03
2018-07-13T09:12:53.272Z,22.90
2018-07-13T09:15:22.384Z,25.30
2018-07-13T09:17:51.488Z,25.30
2018-07-13T09:20:20.575Z,23.63
2018-07-13T09:22:49.734Z,23.10
2018-07-13T09:25:18.796Z,23.70
2018-07-13T09:27:47.861Z,23.93
2018-07-13T09:30:16.965Z,22.00
2018-07-13T09:32:46.028Z,21.93
2018-07-13T09:35:15.096Z,23.33
2018-07-13T09:37:44.157Z,19.67
2018-07-13T09:40:13.224Z,18.63
2018-07-13T09:42:42.297Z,19.37
2018-07-13T09:45:11.463Z,19.67
2018-07-13T09:47:40.416Z,18.13
2018-07-13T09:50:09.492Z,17.80
2018-07-13T09:52:38.677Z,18.40
2018-07-13T09:55:07.765Z,17.57
2018-07-13T09:57:36.793Z,16.70
2018-07-13T10:00:05.941Z,15.80
2018-07-13T10:02:35.033Z,16.40
2018-07-13T10:05:04.288Z,15.50
2018-07-13T10:07:33.391Z,15.60
2018-07-13T10:10:02.495Z,15.83
2018-07-13T10:12:31.564Z,14.47
2018-07-13T10:15:00.620Z,13.67
2018-07-13T10:17:29.748Z,15.30
2018-07-13T10:19:58.547Z,14.03
2018-07-13T10:22:29.256Z,14.40
2018-07-13T10:25:01.224Z,15.47
2018-07-13T10:27:32.581Z,15.90
2018-07-13T10:30:03.145Z,15.37
2018-07-13T10:32:32.365Z,15.40
2018-07-13T10:35:02.565Z,16.53
2018-07-13T10:37:31.665Z,17.80
2018-07-13T10:40:00.812Z,16.70
2018-07-13T10:42:29.639Z,16.90
2018-07-13T10:44:58.620Z,15.00
2018-07-13T10:47:27.683Z,15.37
2018-07-13T10:49:56.781Z,16.60
2018-07-13T10:52:25.872Z,13.50
2018-07-13T10:54:54.941Z,14.67
2018-07-13T10:57:23.984Z,11.50
2018-07-13T10:59:53.032Z,12.93
2018-07-13T11:02:22.066Z,12.60
2018-07-13T11:04:50.823Z,12.97
2018-07-13T11:07:19.792Z,13.70
2018-07-13T11:09:48.852Z,10.80
2018-07-13T11:12:17.895Z,11.80
2018-07-13T11:14:46.964Z,12.57
2018-07-13T11:17:16.060Z,12.60
2018-07-13T11:19:45.124Z,12.67
2018-07-13T11:22:14.140Z,13.60
2018-07-13T11:24:43.311Z,12.30
2018-07-13T11:27:12.038Z,12.70
2018-07-13T11:29:41.053Z,12.47
2018-07-13T11:32:10.099Z,13.30
2018-07-13T11:34:39.171Z,12.43
2018-07-13T11:37:08.412Z,11.23
2018-07-13T11:39:37.446Z,11.00
2018-07-13T11:42:06.488Z,10.73
2018-07-13T11:44:35.595Z,10.63
2018-07-13T11:47:04.676Z,10.20
2018-07-13T11:49:33.805Z,7.43
2018-07-13T11:52:02.832Z,9.23
2018-07-13T11:54:31.891Z,9.03
2018-07-13T11:57:00.950Z,10.47
2018-07-13T11:59:30.560Z,9.80
2018-07-13T12:01:59.597Z,11.40
2018-07-13T12:04:28.652Z,9.47
2018-07-13T12:06:57.676Z,9.80
2018-07-13T12:09:26.724Z,9.40
2018-07-13T12:11:55.512Z,8.60
2018-07-13T12:14:24.476Z,8.60
2018-07-13T12:16:53.536Z,7.50
2018-07-13T12:19:22.621Z,9.33
2018-07-13T12:21:51.651Z,8.40
2018-07-13T12:24:20.716Z,8.73
2018-07-13T12:26:49.918Z,8.80
2018-07-13T12:29:18.985Z,7.97
2018-07-13T12:31:48.045Z,8.50
2018-07-13T12:34:17.120Z,8.90
2018-07-13T12:36:46.174Z,8.63
2018-07-13T12:39:15.399Z,8.83
2018-07-13T12:41:44.440Z,8.00
2018-07-13T12:44:13.491Z,8.83
2018-07-13T12:46:42.713Z,7.97
2018-07-13T12:49:11.798Z,7.50
2018-07-13T12:51:40.852Z,7.63
2018-07-13T12:54:10.002Z,8.77
2018-07-13T12:56:38.984Z,9.00
2018-07-13T12:59:08.020Z,7.80
2018-07-13T13:01:37.084Z,9.63
2018-07-13T13:04:06.265Z,8.37
2018-07-13T13:06:35.352Z,7.20
2018-07-13T13:09:05.677Z,8.27
2018-07-13T13:11:34.716Z,7.30
2018-07-13T13:14:03.805Z,8.00
2018-07-13T13:16:32.856Z,7.07
2018-07-13T13:19:01.877Z,8.67
2018-07-13T13:21:31.021Z,6.97
2018-07-13T13:24:00.027Z,7.97
2018-07-13T13:26:29.156Z,7.80
2018-07-13T13:28:58.167Z,6.57
2018-07-13T13:31:27.220Z,6.77
2018-07-13T13:33:56.440Z,6.63
2018-07-13T13:36:25.500Z,6.27
2018-07-13T13:38:54.553Z,8.00
2018-07-13T13:41:23.596Z,8.20
2018-07-13T13:43:52.852Z,7.50
2018-07-13T13:46:21.940Z,7.33
2018-07-13T13:48:50.968Z,5.50
2018-07-13T13:51:20.021Z,5.10
2018-07-13T13:53:49.235Z,5.43
2018-07-13T13:56:18.365Z,5.20
2018-07-13T13:58:47.400Z,6.27
2018-07-13T14:01:16.432Z,5.10
2018-07-13T14:03:45.559Z,4.60
2018-07-13T14:06:14.670Z,4.80
2018-07-13T14:08:43.681Z,5.87
2018-07-13T14:11:12.732Z,5.20
2018-07-13T14:13:41.815Z,5.50
2018-07-13T14:16:10.847Z,5.00
2018-07-13T14:18:39.873Z,5.80
2018-07-13T14:21:09.117Z,5.33
2018-07-13T14:23:38.139Z,5.77
2018-07-13T14:26:07.200Z,5.70
2018-07-13T14:28:36.233Z,5.80
2018-07-13T14:31:05.306Z,6.10
2018-07-13T14:33:34.374Z,5.77
2018-07-13T14:36:03.412Z,6.07
2018-07-13T14:38:32.501Z,6.07
2018-07-13T14:41:01.520Z,6.60
2018-07-13T14:43:30.593Z,7.17
2018-07-13T14:45:59.657Z,7.10
2018-07-13T14:48:28.807Z,6.60
2018-07-13T14:50:58.253Z,6.03
2018-07-13T14:53:27.346Z,5.87
2018-07-13T14:55:56.459Z,6.37
2018-07-13T14:58:25.557Z,6.07
2018-07-13T15:00:54.571Z,5.20
2018-07-13T15:03:23.999Z,5.17
2018-07-13T15:05:53.076Z,6.30
2018-07-13T15:08:22.308Z,4.60
2018-07-13T15:10:51.393Z,5.97
2018-07-13T15:13:20.464Z,6.80
2018-07-13T15:15:49.488Z,6.30
2018-07-13T15:18:18.571Z,6.37
2018-07-13T15:20:47.629Z,5.30
2018-07-13T15:23:16.669Z,6.47
2018-07-13T15:25:45.860Z,5.43
2018-07-13T15:28:14.907Z,5.00
2018-07-13T15:30:44.013Z,4.70
2018-07-13T15:33:13.153Z,5.00
2018-07-13T15:35:42.301Z,4.87
2018-07-13T15:38:11.326Z,5.00
2018-07-13T15:40:40.467Z,4.53
2018-07-13T15:43:09.583Z,5.07
2018-07-13T15:45:38.798Z,5.37
2018-07-13T15:48:07.962Z,4.83
2018-07-13T15:50:36.732Z,5.03
2018-07-13T15:53:05.692Z,4.60
2018-07-13T15:55:40.004Z,5.10
2018-07-13T15:58:09.701Z,5.30
2018-07-13T16:00:38.823Z,5.40
2018-07-13T16:03:07.937Z,5.70
2018-07-13T16:05:37.122Z,4.60
2018-07-13T16:08:06.148Z,5.17
2018-07-13T16:10:35.381Z,4.60
2018-07-13T16:13:04.456Z,6.03
2018-07-13T16:15:33.570Z,4.73
2018-07-13T16:18:02.651Z,4.53
2018-07-13T16:20:31.814Z,4.20
2018-07-13T16:23:00.895Z,4.50
2018-07-13T16:25:30.157Z,4.80
2018-07-13T16:27:59.207Z,4.60
2018-07-13T16:30:28.281Z,4.80
2018-07-13T16:32:57.372Z,4.30
2018-07-13T16:35:26.428Z,4.17
2018-07-13T16:37:55.480Z,4.87
2018-07-13T16:40:24.582Z,3.77
2018-07-13T16:42:53.619Z,4.57
2018-07-13T16:45:22.650Z,4.33
2018-07-13T16:47:51.709Z,4.67
2018-07-13T16:50:20.777Z,4.40
2018-07-13T16:52:49.548Z,5.30
2018-07-13T16:55:18.221Z,5.07
2018-07-13T16:57:47.188Z,4.70
2018-07-13T17:00:16.269Z,5.23
2018-07-13T17:02:45.309Z,5.33
2018-07-13T17:05:14.647Z,5.47
2018-07-13T17:07:44.037Z,4.70
2018-07-13T17:10:13.363Z,5.13
2018-07-13T17:12:42.424Z,4.77
2018-07-13T17:15:11.460Z,5.00
2018-07-13T17:17:40.476Z,5.30
2018-07-13T17:20:09.596Z,4.70
2018-07-13T17:22:38.573Z,4.43
2018-07-13T17:25:07.628Z,5.23
2018-07-13T17:27:36.672Z,4.50
2018-07-13T17:30:06.975Z,4.83
2018-07-13T17:32:35.995Z,4.83
2018-07-13T17:35:05.151Z,4.07
2018-07-13T17:37:34.182Z,4.77
2018-07-13T17:40:03.402Z,5.07
2018-07-13T17:42:32.477Z,4.40
2018-07-13T17:45:01.744Z,4.30
2018-07-13T17:47:30.812Z,4.53
2018-07-13T17:49:59.889Z,4.70
2018-07-13T17:52:29.167Z,4.43
2018-07-13T17:54:58.383Z,4.70
2018-07-13T17:57:27.488Z,5.10
2018-07-13T17:59:56.741Z,4.63
2018-07-13T18:02:25.799Z,5.30
2018-07-13T18:04:54.901Z,4.67
2018-07-13T18:07:23.957Z,5.27
2018-07-13T18:09:53.040Z,5.93
2018-07-13T18:12:22.228Z,5.00
2018-07-13T18:14:51.378Z,4.57
2018-07-13T18:17:20.609Z,4.90
2018-07-13T18:19:49.786Z,4.50
2018-07-13T18:22:18.900Z,5.60
2018-07-13T18:24:47.980Z,5.27
2018-07-13T18:27:17.690Z,4.77
2018-07-13T18:29:46.953Z,4.80
2018-07-13T18:32:15.867Z,4.70
2018-07-13T18:34:44.960Z,5.17
2018-07-13T18:37:14.029Z,4.50
2018-07-13T18:39:43.319Z,5.27
2018-07-13T18:42:12.384Z,4.97
2018-07-13T18:44:41.442Z,5.60
2018-07-13T18:47:11.186Z,5.80
2018-07-13T18:49:40.299Z,4.97
2018-07-13T18:52:09.420Z,5.43
2018-07-13T18:54:38.186Z,5.40
2018-07-13T18:57:07.191Z,5.67
2018-07-13T18:59:36.272Z,6.27
2018-07-13T19:02:05.461Z,6.00
2018-07-13T19:04:34.691Z,5.60
2018-07-13T19:07:03.871Z,5.97
2018-07-13T19:09:32.913Z,5.33
2018-07-13T19:12:02.164Z,5.33
2018-07-13T19:14:31.306Z,6.17
2018-07-13T19:17:00.372Z,5.70
2018-07-13T19:19:29.859Z,5.20
2018-07-13T19:21:58.704Z,5.30
2018-07-13T19:24:27.633Z,5.30
2018-07-13T19:26:56.709Z,6.00
2018-07-13T19:29:25.805Z,6.05
2018-07-13T19:31:54.928Z,6.00
2018-07-13T19:34:23.988Z,6.27
2018-07-13T19:36:53.211Z,6.40
2018-07-13T19:39:22.312Z,6.67
2018-07-13T19:41:51.399Z,5.80
2018-07-13T19:44:20.500Z,5.85
2018-07-13T19:46:49.783Z,7.33
2018-07-13T19:49:19.010Z,6.80
2018-07-13T19:51:48.276Z,6.00
2018-07-13T19:54:17.979Z,6.40
2018-07-13T19:56:47.204Z,7.10
2018-07-13T19:59:16.448Z,6.33
2018-07-13T20:01:48.519Z,5.70
2018-07-13T20:04:18.439Z,6.00
2018-07-13T20:06:47.864Z,5.80
2018-07-13T20:09:17.964Z,6.62
2018-07-13T20:11:49.989Z,5.75
2018-07-13T20:14:19.783Z,5.85
2018-07-13T20:16:49.213Z,6.33
2018-07-13T20:19:18.592Z,6.37
2018-07-13T20:21:47.988Z,6.10
2018-07-13T20:24:17.116Z,6.40
2018-07-13T20:26:46.306Z,6.75
2018-07-13T20:29:15.498Z,7.08
2018-07-13T20:31:44.727Z,6.87
2018-07-13T20:34:13.936Z,6.58
2018-07-13T20:36:43.044Z,6.55
2018-07-13T20:39:12.305Z,6.28
2018-07-13T20:41:41.488Z,7.45
2018-07-13T20:44:10.774Z,5.83
2018-07-13T20:46:39.974Z,6.53
2018-07-13T20:49:09.195Z,6.50
2018-07-13T20:51:38.431Z,6.75
2018-07-13T20:54:08.151Z,6.87
2018-07-13T20:56:37.305Z,6.78
2018-07-13T20:59:06.946Z,6.20
2018-07-13T21:01:36.662Z,6.67
2018-07-13T21:04:05.876Z,6.55
2018-07-13T21:06:35.020Z,7.95
2018-07-13T21:09:04.973Z,7.05
2018-07-13T21:11:34.171Z,7.08
2018-07-13T21:14:03.489Z,6.80
2018-07-13T21:16:32.576Z,6.70
2018-07-13T21:19:02.006Z,7.00
2018-07-13T21:21:31.042Z,6.70
2018-07-13T21:24:00.177Z,8.05
2018-07-13T21:26:29.392Z,7.62
2018-07-13T21:28:58.484Z,7.50
2018-07-13T21:31:27.674Z,7.10
2018-07-13T21:33:56.822Z,6.78
2018-07-13T21:36:25.953Z,7.72
2018-07-13T21:38:55.024Z,6.80
2018-07-13T21:41:24.236Z,8.23
2018-07-13T21:43:53.328Z,6.95
2018-07-13T21:46:22.376Z,6.70
2018-07-13T21:48:51.751Z,7.30
2018-07-13T21:51:20.867Z,7.78
2018-07-13T21:53:49.924Z,7.12
2018-07-13T21:56:18.983Z,7.60
2018-07-13T21:58:48.231Z,7.53
2018-07-13T22:01:17.408Z,7.37
2018-07-13T22:03:46.476Z,6.72
2018-07-13T22:06:15.526Z,8.55
2018-07-13T22:08:44.581Z,7.60
2018-07-13T22:11:13.604Z,8.33
2018-07-13T22:13:42.872Z,7.50
2018-07-13T22:16:12.055Z,8.48
2018-07-13T22:18:41.119Z,7.33
2018-07-13T22:21:10.187Z,7.42
2018-07-13T22:23:39.341Z,7.55
2018-07-13T22:26:08.383Z,7.35
2018-07-13T22:28:37.484Z,7.62
2018-07-13T22:31:06.586Z,8.48
2018-07-13T22:33:35.677Z,8.53
2018-07-13T22:36:04.729Z,8.65
2018-07-13T22:38:33.838Z,7.58
2018-07-13T22:41:02.904Z,7.60
2018-07-13T22:43:32.032Z,7.08
2018-07-13T22:46:01.097Z,7.80
2018-07-13T22:48:30.158Z,7.65
2018-07-13T22:50:59.217Z,8.63
2018-07-13T22:53:28.351Z,8.40
2018-07-13T22:55:57.417Z,7.55
2018-07-13T22:58:26.471Z,8.03
2018-07-13T23:00:55.533Z,9.35
2018-07-13T23:03:24.547Z,8.40
2018-07-13T23:05:53.593Z,9.23
2018-07-13T23:08:22.621Z,8.48
2018-07-13T23:10:51.728Z,8.85
2018-07-13T23:13:20.742Z,8.20
2018-07-13T23:15:49.786Z,9.00
2018-07-13T23:18:19.036Z,8.73
2018-07-13T23:20:47.800Z,9.60
2018-07-13T23:23:16.744Z,8.35
2018-07-13T23:25:45.830Z,8.58
2018-07-13T23:28:14.876Z,8.70
2018-07-13T23:30:43.968Z,9.23
2018-07-13T23:33:13.002Z,8.30
2018-07-13T23:35:42.061Z,9.28
2018-07-13T23:38:11.082Z,8.55
2018-07-13T23:40:40.099Z,9.03
2018-07-13T23:43:09.152Z,9.10
2018-07-13T23:45:38.247Z,8.50
2018-07-13T23:48:07.276Z,8.03
2018-07-13T23:50:36.343Z,9.50
2018-07-13T23:53:05.408Z,8.70
2018-07-13T23:55:34.449Z,8.15
2018-07-13T23:58:03.497Z,9.00
